KTTD/TTD METAR and TAF weather

Enter ICAO airport designator
Station Type Date Time Source
KTTD METAR 2020/01/23 14:53 UTC NOAA

KTTD 231453Z AUTO 07013KT 10SM BKN032 BKN041 OVC090 07/05 A3005 RMK AO2 RAE1357B23E36 SLP176 P0000 60000 T00720050 58006


Station Type Date Time Source
KTTD Decoded METAR 2020/01/23 14:53 UTC NOAA

PORTLAND-TROUTDALE AIRPORT, OR, United States (KTTD) 45-33N 122-25W 14M
Jan 23, 2020 - 09:53 AM EST / 2020.01.23 1453 UTC
Wind: from the ENE (070 degrees) at 15 MPH (13 KT):0
Visibility: 10 mile(s):0
Sky conditions: overcast
Precipitation last hour: A trace
Temperature: 45.0 F (7.2 C)
Dew Point: 41.0 F (5.0 C)
Relative Humidity: 85%
Pressure (altimeter): 30.05 in. Hg (1017 hPa)
Pressure tendency: 0.02 inches (0.6 hPa) lower than three hours ago
ob: KTTD 231453Z AUTO 07013KT 10SM BKN032 BKN041 OVC090 07/05 A3005 RMK AO2 RAE1357B23E36 SLP176 P0000 60000 T00720050 58006
cycle: 15

Station Type Date Time Source
KTTD TAF 2020/01/23 12:24 UTC NOAA

TAF KTTD 231123Z 2312/2412 08012G20KT P6SM VCSH OVC025 WS015/21035KT
FM231800 10010G20KT 6SM -RA BR OVC025
FM240300 09011KT P6SM -SHRA BKN020

Example: see airport list